Time;durP1;ratioP1;P1;durP2;ratioP2;P2;SDS_P1;SDS_P2;PMS_P1;PMS_P2;Temp;Humidity;BMP_temperature;BMP_pressure;BME280_temperature;BME280_humidity;BME280_pressure;Samples;Min_cycle;Max_cycle;Signal;HPM_P1;HPM_P2
2023/08/06 00:01:59;;;;;;;;;;;14.90;99.90;;;;;;5011241;28;19929;-78
2023/08/06 00:04:26;;;;;;;;;;;14.90;99.90;;;;;;5011277;28;19957;-78
2023/08/06 00:06:52;;;;;;;;;;;14.90;99.90;;;;;;5010307;28;19957;-78
2023/08/06 00:09:27;;;;;;;;;;;14.90;99.90;;;;;;5009238;28;19953;-78
2023/08/06 00:11:54;;;;;;;;;;;14.90;99.90;;;;;;5011645;28;19978;-79
2023/08/06 00:14:21;;;;;;;;;;;15.00;99.90;;;;;;5011383;28;19961;-78
2023/08/06 00:16:47;;;;;;;;;;;15.00;99.90;;;;;;5008244;28;19921;-78
2023/08/06 00:19:14;;;;;;;;;;;15.00;99.90;;;;;;5011049;28;20265;-78
2023/08/06 00:21:40;;;;;;;;;;;15.00;99.90;;;;;;5011107;28;20000;-78
2023/08/06 00:24:07;;;;;;;;;;;14.90;99.90;;;;;;5011902;28;19950;-78
2023/08/06 00:26:35;;;;;;;;;;;15.00;99.90;;;;;;5010662;28;19949;-78
2023/08/06 00:29:02;;;;;;;;;;;15.00;99.90;;;;;;5007257;28;19957;-78
2023/08/06 00:31:28;;;;;;;;;;;15.00;99.90;;;;;;5011559;28;19929;-78
2023/08/06 00:33:55;;;;;;;;;;;15.00;99.90;;;;;;5011756;28;19981;-78
2023/08/06 00:36:21;;;;;;;;;;;15.10;99.90;;;;;;5011486;28;19922;-78
2023/08/06 00:38:48;;;;;;;;;;;15.10;99.90;;;;;;5012415;28;20291;-78
2023/08/06 00:41:15;;;;;;;;;;;15.00;99.90;;;;;;5012325;28;19921;-78
2023/08/06 00:43:42;;;;;;;;;;;15.10;99.90;;;;;;5008739;28;19985;-78
2023/08/06 00:46:09;;;;;;;;;;;15.10;99.90;;;;;;5011520;28;20248;-78
2023/08/06 00:48:36;;;;;;;;;;;15.10;99.90;;;;;;5012062;28;19921;-79
2023/08/06 00:51:02;;;;;;;;;;;15.10;99.90;;;;;;5012654;28;19981;-78
2023/08/06 00:53:29;;;;;;;;;;;15.00;99.90;;;;;;5012488;28;19922;-79
2023/08/06 00:55:56;;;;;;;;;;;15.00;99.90;;;;;;5009972;28;19988;-79
2023/08/06 00:58:22;;;;;;;;;;;15.00;99.90;;;;;;5006770;28;19960;-78
2023/08/06 01:00:50;;;;;;;;;;;14.90;99.90;;;;;;4999172;28;19981;-78
2023/08/06 01:03:17;;;;;;;;;;;15.00;99.90;;;;;;5006770;28;19928;-78
2023/08/06 01:05:44;;;;;;;;;;;15.10;99.90;;;;;;5006340;28;20112;-78
2023/08/06 01:08:16;;;;;;;;;;;15.00;99.90;;;;;;5006269;28;19922;-77
2023/08/06 01:10:48;;;;;;;;;;;15.00;99.90;;;;;;5008460;28;19921;-78
2023/08/06 01:13:19;;;;;;;;;;;15.10;99.90;;;;;;5002597;28;19993;-78
2023/08/06 01:15:47;;;;;;;;;;;15.10;99.90;;;;;;5004976;28;19929;-77
2023/08/06 01:18:15;;;;;;;;;;;15.10;99.90;;;;;;5010837;28;19968;-78
2023/08/06 01:20:43;;;;;;;;;;;15.10;99.90;;;;;;5011265;28;19922;-77
2023/08/06 01:23:10;;;;;;;;;;;15.10;99.90;;;;;;5009032;28;19960;-78
2023/08/06 01:25:38;;;;;;;;;;;15.00;99.90;;;;;;5008001;28;20192;-77
2023/08/06 01:28:07;;;;;;;;;;;15.00;99.90;;;;;;5004391;28;19979;-78
2023/08/06 01:30:35;;;;;;;;;;;15.10;99.90;;;;;;4996848;28;19964;-77
2023/08/06 01:33:04;;;;;;;;;;;15.10;99.90;;;;;;5005050;28;20153;-78
2023/08/06 01:35:31;;;;;;;;;;;15.10;99.90;;;;;;4997267;28;20180;-77
2023/08/06 01:38:00;;;;;;;;;;;15.10;99.90;;;;;;4994479;28;19972;-77
2023/08/06 01:40:28;;;;;;;;;;;15.00;99.90;;;;;;5004778;28;19929;-77
2023/08/06 01:42:54;;;;;;;;;;;15.00;99.90;;;;;;5005155;28;19960;-77
2023/08/06 01:45:21;;;;;;;;;;;15.00;99.90;;;;;;5004618;28;20210;-77
2023/08/06 01:47:48;;;;;;;;;;;15.00;99.90;;;;;;5004009;28;19928;-77
2023/08/06 01:50:14;;;;;;;;;;;15.00;99.90;;;;;;5004628;28;20229;-77
2023/08/06 01:52:41;;;;;;;;;;;15.00;99.90;;;;;;5004712;28;19957;-77
2023/08/06 01:55:09;;;;;;;;;;;15.10;99.90;;;;;;5004565;28;20112;-77
2023/08/06 01:57:36;;;;;;;;;;;15.00;99.90;;;;;;5008621;28;19948;-79
2023/08/06 02:00:02;;;;;;;;;;;15.00;99.90;;;;;;5010849;28;19932;-78
2023/08/06 02:02:29;;;;;;;;;;;15.00;99.90;;;;;;5009835;28;19928;-78
2023/08/06 02:04:58;;;;;;;;;;;14.90;99.90;;;;;;5009786;28;19922;-78
2023/08/06 02:07:24;;;;;;;;;;;15.00;99.90;;;;;;5009487;28;19945;-78
2023/08/06 02:09:51;;;;;;;;;;;14.90;99.90;;;;;;5009870;28;19981;-77
2023/08/06 02:12:19;;;;;;;;;;;14.90;99.90;;;;;;5005237;28;19988;-77
2023/08/06 02:14:45;;;;;;;;;;;14.90;99.90;;;;;;5004310;28;19957;-77
2023/08/06 02:17:12;;;;;;;;;;;14.90;99.90;;;;;;5004087;28;19922;-77
2023/08/06 02:19:39;;;;;;;;;;;14.90;99.90;;;;;;5004891;28;20172;-77
2023/08/06 02:22:06;;;;;;;;;;;14.80;99.90;;;;;;5004783;28;20261;-77
2023/08/06 02:24:32;;;;;;;;;;;14.90;99.90;;;;;;5004722;28;19922;-77
2023/08/06 02:26:59;;;;;;;;;;;14.80;99.90;;;;;;5006791;28;19992;-78
2023/08/06 02:29:27;;;;;;;;;;;14.80;99.90;;;;;;5006449;28;19985;-79
2023/08/06 02:31:56;;;;;;;;;;;14.80;99.90;;;;;;5005147;28;19953;-78
2023/08/06 02:34:23;;;;;;;;;;;14.80;99.90;;;;;;5004992;28;19921;-78
2023/08/06 02:36:49;;;;;;;;;;;14.70;99.90;;;;;;5004005;28;19956;-77
2023/08/06 02:45:32;;;;;;;;;;;14.70;99.90;;;;;;4988945;28;19961;-70
2023/08/06 02:47:59;;;;;;;;;;;14.70;99.90;;;;;;5003622;28;19985;-71
2023/08/06 02:56:32;;;;;;;;;;;14.60;99.90;;;;;;4984087;28;19917;-71
2023/08/06 02:58:59;;;;;;;;;;;14.60;99.90;;;;;;4988970;28;19922;-72
2023/08/06 03:04:30;;;;;;;;;;;14.50;99.90;;;;;;4984069;28;20148;-72
2023/08/06 03:06:57;;;;;;;;;;;14.50;99.90;;;;;;4984437;28;19985;-71
2023/08/06 03:15:40;;;;;;;;;;;14.40;99.90;;;;;;4828403;29;20239;-71
2023/08/06 03:18:07;;;;;;;;;;;14.40;99.90;;;;;;4994589;28;19985;-71
2023/08/06 03:23:55;;;;;;;;;;;14.40;99.90;;;;;;4949479;28;19928;-71
2023/08/06 03:26:22;;;;;;;;;;;14.30;99.90;;;;;;5006186;28;19922;-72
2023/08/06 03:28:48;;;;;;;;;;;14.30;99.90;;;;;;5002587;28;19921;-71
2023/08/06 03:31:18;;;;;;;;;;;14.30;99.90;;;;;;4998695;28;19985;-71
2023/08/06 03:33:52;;;;;;;;;;;14.20;99.90;;;;;;5001479;28;19958;-71
2023/08/06 03:36:18;;;;;;;;;;;14.30;99.90;;;;;;4979414;28;19965;-71
2023/08/06 03:38:45;;;;;;;;;;;14.20;99.90;;;;;;4967696;28;19923;-71
2023/08/06 03:41:13;;;;;;;;;;;14.20;99.90;;;;;;4967889;29;20014;-71
2023/08/06 03:43:39;;;;;;;;;;;14.20;99.90;;;;;;4971826;28;20269;-71
2023/08/06 03:46:06;;;;;;;;;;;14.20;99.90;;;;;;4997975;28;19921;-71
2023/08/06 03:48:33;;;;;;;;;;;14.20;99.90;;;;;;5006393;28;20265;-71
2023/08/06 03:51:01;;;;;;;;;;;14.20;99.90;;;;;;5006607;28;19928;-71
2023/08/06 03:53:28;;;;;;;;;;;14.10;99.90;;;;;;5006246;28;19984;-71
2023/08/06 03:55:55;;;;;;;;;;;14.00;99.90;;;;;;5006464;28;20188;-71
2023/08/06 03:58:23;;;;;;;;;;;14.00;99.90;;;;;;5006380;28;19980;-71
2023/08/06 04:00:58;;;;;;;;;;;14.00;99.90;;;;;;4986963;28;19965;-71
2023/08/06 04:03:24;;;;;;;;;;;13.90;99.90;;;;;;4986947;28;19989;-71
2023/08/06 04:05:51;;;;;;;;;;;14.00;99.90;;;;;;4986506;28;20260;-71
2023/08/06 04:08:17;;;;;;;;;;;14.00;99.90;;;;;;4986755;28;19989;-71
2023/08/06 04:10:44;;;;;;;;;;;14.00;99.90;;;;;;4986431;28;19985;-71
2023/08/06 04:13:10;;;;;;;;;;;14.00;99.90;;;;;;4984812;28;19928;-70
2023/08/06 04:15:38;;;;;;;;;;;13.90;99.90;;;;;;4986759;28;19922;-71
2023/08/06 04:18:05;;;;;;;;;;;14.00;99.90;;;;;;5005670;28;19965;-71
2023/08/06 04:20:32;;;;;;;;;;;14.00;99.90;;;;;;5005992;28;20142;-71
2023/08/06 04:22:58;;;;;;;;;;;14.00;99.90;;;;;;5005890;28;19925;-71
2023/08/06 04:25:25;;;;;;;;;;;14.00;99.90;;;;;;5005860;28;20164;-71
2023/08/06 04:27:51;;;;;;;;;;;14.00;99.90;;;;;;5005838;28;19922;-72
2023/08/06 04:30:18;;;;;;;;;;;14.00;99.90;;;;;;4997284;28;20252;-71
2023/08/06 04:32:46;;;;;;;;;;;14.00;99.90;;;;;;4986621;28;19985;-72
2023/08/06 04:35:13;;;;;;;;;;;14.00;99.90;;;;;;4986260;28;19950;-71
2023/08/06 04:37:39;;;;;;;;;;;14.00;99.90;;;;;;4985844;28;19990;-71
2023/08/06 04:40:06;;;;;;;;;;;14.00;99.90;;;;;;4985723;28;20201;-72
2023/08/06 04:42:32;;;;;;;;;;;14.00;99.90;;;;;;4985947;28;19981;-72
2023/08/06 04:44:59;;;;;;;;;;;14.00;99.90;;;;;;4986125;28;20113;-72
2023/08/06 04:47:26;;;;;;;;;;;14.00;99.90;;;;;;4985707;28;20256;-74
2023/08/06 04:49:54;;;;;;;;;;;14.00;99.90;;;;;;4985841;28;20209;-72
2023/08/06 04:52:20;;;;;;;;;;;14.00;99.90;;;;;;4985578;28;20000;-72
2023/08/06 04:54:47;;;;;;;;;;;14.00;99.90;;;;;;4985608;28;19960;-72
2023/08/06 04:57:14;;;;;;;;;;;14.00;99.90;;;;;;4985674;28;19922;-71
2023/08/06 04:59:40;;;;;;;;;;;14.00;99.90;;;;;;4993434;28;20236;-72
2023/08/06 05:02:07;;;;;;;;;;;14.10;99.90;;;;;;4999408;28;19922;-72
2023/08/06 05:04:33;;;;;;;;;;;14.10;99.90;;;;;;5005172;28;20195;-72
2023/08/06 05:07:01;;;;;;;;;;;14.10;99.90;;;;;;5005055;28;20224;-71
2023/08/06 05:09:28;;;;;;;;;;;14.20;99.90;;;;;;5005107;28;19993;-72
2023/08/06 05:11:54;;;;;;;;;;;14.20;99.90;;;;;;5005021;28;19984;-72
2023/08/06 05:14:21;;;;;;;;;;;14.30;99.90;;;;;;4996892;28;19922;-71
2023/08/06 05:16:48;;;;;;;;;;;14.40;99.90;;;;;;4996684;28;19922;-71
2023/08/06 05:19:14;;;;;;;;;;;14.40;99.90;;;;;;5005040;28;19922;-71
2023/08/06 05:21:41;;;;;;;;;;;14.50;99.90;;;;;;5004902;28;19992;-71
2023/08/06 05:24:09;;;;;;;;;;;14.50;99.90;;;;;;4974013;28;19922;-71
2023/08/06 05:26:35;;;;;;;;;;;14.60;99.90;;;;;;4965802;29;19997;-71
2023/08/06 05:29:02;;;;;;;;;;;14.60;99.90;;;;;;4974776;28;19922;-71
2023/08/06 05:31:29;;;;;;;;;;;14.60;99.90;;;;;;4992812;28;20091;-72
2023/08/06 05:33:56;;;;;;;;;;;14.60;99.90;;;;;;4970708;28;19929;-70
2023/08/06 05:36:22;;;;;;;;;;;14.60;99.90;;;;;;4965492;28;19931;-70
2023/08/06 05:38:49;;;;;;;;;;;14.60;99.90;;;;;;4965838;29;19986;-71
2023/08/06 05:41:17;;;;;;;;;;;14.60;99.90;;;;;;4965758;28;20120;-71
2023/08/06 05:43:46;;;;;;;;;;;14.60;99.90;;;;;;4965355;28;19986;-70
2023/08/06 05:46:12;;;;;;;;;;;14.70;99.90;;;;;;4978823;28;19986;-71
2023/08/06 05:48:39;;;;;;;;;;;14.70;99.90;;;;;;5004459;28;19981;-71
2023/08/06 05:51:05;;;;;;;;;;;14.70;99.90;;;;;;5004237;28;19992;-71
2023/08/06 05:53:32;;;;;;;;;;;14.70;99.90;;;;;;5004088;28;20002;-71
2023/08/06 05:55:59;;;;;;;;;;;14.70;99.90;;;;;;5004326;28;20098;-71
2023/08/06 05:58:29;;;;;;;;;;;14.70;99.90;;;;;;4999537;28;19938;-71
2023/08/06 06:00:55;;;;;;;;;;;14.70;99.90;;;;;;4989224;28;19945;-71
2023/08/06 06:03:22;;;;;;;;;;;14.80;99.90;;;;;;5004072;28;19922;-71
2023/08/06 06:05:48;;;;;;;;;;;14.80;99.90;;;;;;4986874;28;19922;-71
2023/08/06 06:08:15;;;;;;;;;;;14.90;99.90;;;;;;4984688;28;19928;-71
2023/08/06 06:10:48;;;;;;;;;;;14.90;99.90;;;;;;4984638;28;20170;-70
2023/08/06 06:13:15;;;;;;;;;;;14.90;99.90;;;;;;4984543;28;19989;-71
2023/08/06 06:15:43;;;;;;;;;;;14.90;99.90;;;;;;4983248;28;20201;-71
2023/08/06 06:18:10;;;;;;;;;;;14.90;99.90;;;;;;4965179;29;19954;-71
2023/08/06 06:20:45;;;;;;;;;;;14.90;99.90;;;;;;4965125;28;20111;-71
2023/08/06 06:23:12;;;;;;;;;;;14.90;99.90;;;;;;4965327;29;19922;-71
2023/08/06 06:25:42;;;;;;;;;;;14.90;99.90;;;;;;4965362;29;19929;-71
2023/08/06 06:28:09;;;;;;;;;;;14.90;99.90;;;;;;4965317;29;19922;-71
2023/08/06 06:30:36;;;;;;;;;;;14.90;99.90;;;;;;4964973;28;19970;-70
2023/08/06 06:33:04;;;;;;;;;;;14.90;99.90;;;;;;4965311;28;19923;-71
2023/08/06 06:35:30;;;;;;;;;;;14.90;99.90;;;;;;4965121;29;19993;-70
2023/08/06 06:37:57;;;;;;;;;;;14.90;99.90;;;;;;4965175;29;19990;-74
2023/08/06 06:40:23;;;;;;;;;;;14.90;99.90;;;;;;4964945;29;20236;-70
2023/08/06 06:42:50;;;;;;;;;;;14.90;99.90;;;;;;4966686;28;19997;-69
2023/08/06 06:45:17;;;;;;;;;;;14.90;99.90;;;;;;4983047;28;20171;-70
2023/08/06 06:47:43;;;;;;;;;;;14.90;99.90;;;;;;5007247;28;19988;-70
2023/08/06 06:50:11;;;;;;;;;;;14.90;99.90;;;;;;5007608;28;19957;-71
2023/08/06 06:52:38;;;;;;;;;;;14.90;99.90;;;;;;5007516;28;19950;-69
2023/08/06 06:55:05;;;;;;;;;;;14.90;99.90;;;;;;5007360;28;19993;-70
2023/08/06 06:57:32;;;;;;;;;;;15.00;99.90;;;;;;5007247;28;19988;-71
2023/08/06 06:59:58;;;;;;;;;;;15.00;99.90;;;;;;4983635;28;19997;-70
2023/08/06 07:02:25;;;;;;;;;;;15.10;99.90;;;;;;4990802;28;19997;-70
2023/08/06 07:04:51;;;;;;;;;;;15.10;99.90;;;;;;4987877;28;19989;-71
2023/08/06 07:07:19;;;;;;;;;;;15.10;99.90;;;;;;4987511;28;19922;-71
2023/08/06 07:09:46;;;;;;;;;;;15.10;99.90;;;;;;4987817;28;19949;-71
2023/08/06 07:12:13;;;;;;;;;;;15.20;99.90;;;;;;4987587;28;20172;-71
2023/08/06 07:14:39;;;;;;;;;;;15.20;99.90;;;;;;4995120;28;19929;-71
2023/08/06 07:20:32;;;;;;;;;;;15.10;99.90;;;;;;4965480;28;19925;-70
2023/08/06 07:29:11;;;;;;;;;;;15.10;99.90;;;;;;4973039;28;19918;-69
2023/08/06 07:31:42;;;;;;;;;;;14.90;99.90;;;;;;4995684;28;20252;-71
2023/08/06 07:34:33;;;;;;;;;;;14.90;99.90;;;;;;4987070;28;19930;-70
2023/08/06 07:37:00;;;;;;;;;;;14.80;99.90;;;;;;4986624;28;19922;-70
2023/08/06 07:39:28;;;;;;;;;;;14.80;99.90;;;;;;4968053;28;19923;-70
2023/08/06 07:41:55;;;;;;;;;;;14.80;99.90;;;;;;4967495;28;19926;-70
2023/08/06 07:44:23;;;;;;;;;;;14.90;99.90;;;;;;4984711;28;19977;-70
2023/08/06 07:46:50;;;;;;;;;;;14.90;99.90;;;;;;4994684;28;19926;-70
2023/08/06 07:49:16;;;;;;;;;;;15.00;99.90;;;;;;4986714;28;19985;-70
2023/08/06 07:51:43;;;;;;;;;;;14.90;99.90;;;;;;4969782;28;19922;-70
2023/08/06 07:54:10;;;;;;;;;;;14.90;99.90;;;;;;4966898;28;20233;-69
2023/08/06 07:56:36;;;;;;;;;;;15.00;99.90;;;;;;4967042;28;19993;-70
2023/08/06 07:59:03;;;;;;;;;;;14.90;99.90;;;;;;4978077;28;19922;-70
2023/08/06 08:01:31;;;;;;;;;;;14.90;99.90;;;;;;4989183;28;19928;-70
2023/08/06 08:03:58;;;;;;;;;;;14.90;99.90;;;;;;4986698;28;19965;-70
2023/08/06 08:06:24;;;;;;;;;;;14.80;99.90;;;;;;4986230;28;19990;-70
2023/08/06 08:08:51;;;;;;;;;;;14.80;99.90;;;;;;4986742;28;19985;-69
2023/08/06 08:11:18;;;;;;;;;;;14.70;99.90;;;;;;4971368;28;19926;-69
2023/08/06 08:13:45;;;;;;;;;;;14.80;99.90;;;;;;4972860;28;19957;-71
2023/08/06 08:16:11;;;;;;;;;;;14.70;99.90;;;;;;4997505;28;19957;-69
2023/08/06 08:18:39;;;;;;;;;;;14.80;99.90;;;;;;5006096;28;19976;-69
2023/08/06 08:21:06;;;;;;;;;;;14.90;99.90;;;;;;4995860;28;20181;-69
2023/08/06 08:23:33;;;;;;;;;;;14.90;99.90;;;;;;4985853;28;20210;-69
2023/08/06 08:26:02;;;;;;;;;;;15.00;99.90;;;;;;4983189;28;19928;-69
2023/08/06 08:28:28;;;;;;;;;;;15.00;99.90;;;;;;4971671;28;21244;-69
2023/08/06 08:30:55;;;;;;;;;;;15.20;99.90;;;;;;4976248;28;19928;-69
2023/08/06 08:33:22;;;;;;;;;;;15.20;99.90;;;;;;4980926;28;19996;-69
2023/08/06 08:35:52;;;;;;;;;;;15.40;99.90;;;;;;4968643;28;21256;-69
2023/08/06 08:38:19;;;;;;;;;;;15.50;99.90;;;;;;4985582;28;19928;-69
2023/08/06 08:40:46;;;;;;;;;;;15.60;99.90;;;;;;4981256;28;19922;-71
2023/08/06 08:43:13;;;;;;;;;;;15.60;99.90;;;;;;4972711;28;19922;-70
2023/08/06 08:45:40;;;;;;;;;;;15.50;99.90;;;;;;4993890;28;19922;-69
2023/08/06 08:48:07;;;;;;;;;;;15.50;99.90;;;;;;4985429;28;19989;-69
2023/08/06 08:50:34;;;;;;;;;;;15.50;99.90;;;;;;4978971;28;19929;-69
2023/08/06 08:53:02;;;;;;;;;;;15.40;99.90;;;;;;4966421;29;19961;-69
2023/08/06 08:55:29;;;;;;;;;;;15.30;99.90;;;;;;4966248;29;19953;-70
2023/08/06 08:57:56;;;;;;;;;;;15.20;99.90;;;;;;4966077;29;19922;-70
2023/08/06 09:00:22;;;;;;;;;;;15.10;99.90;;;;;;4989811;28;19928;-69
2023/08/06 09:02:50;;;;;;;;;;;15.20;99.90;;;;;;4983404;28;19993;-69
2023/08/06 09:05:17;;;;;;;;;;;15.30;99.90;;;;;;4984840;28;19965;-69
2023/08/06 09:07:47;;;;;;;;;;;15.30;99.90;;;;;;4984938;28;20002;-69
2023/08/06 09:10:17;;;;;;;;;;;15.40;99.90;;;;;;4983480;28;19953;-69
2023/08/06 09:12:44;;;;;;;;;;;15.50;99.90;;;;;;4985578;28;19965;-69
2023/08/06 09:15:11;;;;;;;;;;;15.50;99.90;;;;;;4990721;28;19945;-69
2023/08/06 09:17:38;;;;;;;;;;;15.50;99.90;;;;;;5002928;28;19926;-69
2023/08/06 09:20:11;;;;;;;;;;;15.50;99.90;;;;;;4996220;28;19985;-69
2023/08/06 09:22:38;;;;;;;;;;;15.50;99.90;;;;;;4985233;28;20185;-70
2023/08/06 09:25:09;;;;;;;;;;;15.50;99.90;;;;;;4985110;28;19989;-71
2023/08/06 09:27:37;;;;;;;;;;;15.50;99.90;;;;;;4985272;28;19922;-70
2023/08/06 09:30:04;;;;;;;;;;;15.60;99.90;;;;;;4991215;28;19980;-70
2023/08/06 09:32:45;;;;;;;;;;;15.60;99.90;;;;;;5002342;28;19928;-70
2023/08/06 09:35:15;;;;;;;;;;;15.70;99.90;;;;;;4996007;28;20465;-70
2023/08/06 09:37:42;;;;;;;;;;;15.70;99.90;;;;;;4984653;28;19957;-70
2023/08/06 09:40:24;;;;;;;;;;;15.80;99.90;;;;;;4968829;28;19953;-70
2023/08/06 09:42:52;;;;;;;;;;;15.80;99.90;;;;;;4973778;28;20261;-69
2023/08/06 09:45:19;;;;;;;;;;;15.80;99.90;;;;;;4990800;28;19945;-70
2023/08/06 09:47:46;;;;;;;;;;;15.80;99.90;;;;;;4988210;28;19964;-69
2023/08/06 09:50:15;;;;;;;;;;;15.60;99.90;;;;;;4980399;28;19997;-69
2023/08/06 09:52:43;;;;;;;;;;;15.40;99.90;;;;;;4983114;28;20237;-70
2023/08/06 09:55:11;;;;;;;;;;;15.40;99.90;;;;;;4984687;28;19922;-69
2023/08/06 09:57:38;;;;;;;;;;;15.30;99.90;;;;;;4970095;28;19989;-70
2023/08/06 10:00:08;;;;;;;;;;;15.20;99.90;;;;;;4990387;28;19959;-69
2023/08/06 10:02:36;;;;;;;;;;;15.20;99.90;;;;;;4969429;28;19923;-69
2023/08/06 10:05:03;;;;;;;;;;;15.30;99.90;;;;;;4965630;28;19929;-69
2023/08/06 10:07:30;;;;;;;;;;;15.40;99.90;;;;;;4965376;28;20005;-70
2023/08/06 10:09:57;;;;;;;;;;;15.50;99.90;;;;;;4965255;29;19961;-70
2023/08/06 10:12:24;;;;;;;;;;;15.60;99.90;;;;;;4964917;28;20184;-70
2023/08/06 10:14:52;;;;;;;;;;;15.60;99.90;;;;;;4986622;28;19922;-69
2023/08/06 10:17:20;;;;;;;;;;;15.80;99.90;;;;;;5002413;28;19956;-69
2023/08/06 10:19:47;;;;;;;;;;;16.00;99.90;;;;;;5008175;28;20160;-70
2023/08/06 10:22:14;;;;;;;;;;;16.10;99.90;;;;;;5008174;28;19922;-69
2023/08/06 10:24:48;;;;;;;;;;;16.10;99.90;;;;;;5007773;28;19928;-69
2023/08/06 10:27:14;;;;;;;;;;;16.10;99.90;;;;;;5007935;28;19985;-69
2023/08/06 10:29:41;;;;;;;;;;;15.90;99.90;;;;;;5003086;28;20120;-70
2023/08/06 10:32:07;;;;;;;;;;;15.80;99.90;;;;;;5002567;28;19981;-69
2023/08/06 10:34:53;;;;;;;;;;;15.70;99.90;;;;;;5008102;28;19964;-69
2023/08/06 10:37:21;;;;;;;;;;;15.70;99.90;;;;;;5007818;28;19921;-70
2023/08/06 10:39:49;;;;;;;;;;;15.70;99.90;;;;;;5007671;28;20224;-70
2023/08/06 10:42:20;;;;;;;;;;;15.80;99.90;;;;;;4976833;28;20005;-70
2023/08/06 10:45:02;;;;;;;;;;;15.80;99.90;;;;;;4989019;28;20209;-70
2023/08/06 10:47:28;;;;;;;;;;;15.90;99.90;;;;;;4994287;28;19954;-69
2023/08/06 10:49:55;;;;;;;;;;;16.10;99.90;;;;;;4988167;28;19925;-70
2023/08/06 10:52:23;;;;;;;;;;;16.20;99.90;;;;;;4982652;28;19929;-70
2023/08/06 10:54:50;;;;;;;;;;;16.30;99.90;;;;;;4984784;28;19985;-69
2023/08/06 10:57:17;;;;;;;;;;;16.40;99.90;;;;;;4983878;28;19972;-70
2023/08/06 10:59:43;;;;;;;;;;;16.50;99.90;;;;;;4989138;28;20001;-70
2023/08/06 11:02:10;;;;;;;;;;;16.60;99.90;;;;;;5002072;28;19993;-69
2023/08/06 11:04:37;;;;;;;;;;;16.50;99.90;;;;;;5006053;28;19996;-71
2023/08/06 11:07:03;;;;;;;;;;;16.50;99.90;;;;;;4987737;28;19953;-70
2023/08/06 11:09:34;;;;;;;;;;;16.40;99.90;;;;;;4988043;28;19988;-70
2023/08/06 11:12:01;;;;;;;;;;;16.30;99.90;;;;;;4969800;28;19985;-70
2023/08/06 11:14:33;;;;;;;;;;;16.30;99.90;;;;;;4978455;28;20125;-74
2023/08/06 11:17:00;;;;;;;;;;;16.40;99.90;;;;;;5000276;28;19921;-71
2023/08/06 11:19:26;;;;;;;;;;;16.60;99.90;;;;;;5007338;28;20174;-70
2023/08/06 11:21:53;;;;;;;;;;;16.80;99.90;;;;;;5006813;28;20002;-71
2023/08/06 11:24:20;;;;;;;;;;;16.80;99.90;;;;;;5005040;28;19953;-71
2023/08/06 11:26:48;;;;;;;;;;;16.90;99.90;;;;;;4977400;28;19989;-70
2023/08/06 11:29:16;;;;;;;;;;;16.80;99.90;;;;;;4993437;28;19985;-70
2023/08/06 11:31:42;;;;;;;;;;;16.80;99.90;;;;;;4988524;28;20289;-72
2023/08/06 11:34:09;;;;;;;;;;;16.80;99.90;;;;;;4987260;28;19928;-71
2023/08/06 11:36:41;;;;;;;;;;;16.70;99.90;;;;;;4986669;28;20026;-70
2023/08/06 11:39:07;;;;;;;;;;;16.70;99.90;;;;;;4978374;28;19986;-70
2023/08/06 11:41:34;;;;;;;;;;;16.80;99.90;;;;;;4980988;28;19930;-70
2023/08/06 11:44:02;;;;;;;;;;;17.00;99.90;;;;;;4979996;28;20293;-71
2023/08/06 11:46:29;;;;;;;;;;;17.00;99.90;;;;;;4993762;28;19922;-71
2023/08/06 11:48:56;;;;;;;;;;;17.20;99.90;;;;;;4967487;28;19962;-71
2023/08/06 11:51:23;;;;;;;;;;;17.20;99.90;;;;;;4967361;28;20001;-70
2023/08/06 11:53:50;;;;;;;;;;;17.20;99.90;;;;;;4967354;28;19969;-70
2023/08/06 11:56:16;;;;;;;;;;;17.00;99.90;;;;;;4966466;29;19930;-70
2023/08/06 11:58:43;;;;;;;;;;;16.90;99.90;;;;;;4972328;28;19997;-70
2023/08/06 12:01:12;;;;;;;;;;;16.80;99.90;;;;;;4995381;28;19922;-70
2023/08/06 12:03:40;;;;;;;;;;;16.70;99.90;;;;;;4987247;28;20005;-71
2023/08/06 12:06:07;;;;;;;;;;;16.80;99.90;;;;;;4966111;29;20161;-71
2023/08/06 12:08:34;;;;;;;;;;;17.00;99.90;;;;;;4973701;28;19922;-70
2023/08/06 12:11:01;;;;;;;;;;;17.10;99.90;;;;;;4977046;28;19990;-70
2023/08/06 12:13:27;;;;;;;;;;;17.00;99.90;;;;;;4985208;28;19930;-69
2023/08/06 12:15:57;;;;;;;;;;;16.80;99.90;;;;;;4997408;28;20288;-70
2023/08/06 12:18:25;;;;;;;;;;;16.60;99.90;;;;;;4976809;28;19940;-71
2023/08/06 12:20:51;;;;;;;;;;;16.40;99.90;;;;;;4967129;29;20055;-70
2023/08/06 12:23:18;;;;;;;;;;;16.30;99.90;;;;;;4975643;28;19950;-71
2023/08/06 12:25:45;;;;;;;;;;;16.20;99.90;;;;;;4978992;28;19922;-69
2023/08/06 12:28:13;;;;;;;;;;;16.10;99.90;;;;;;4985534;28;19922;-70
2023/08/06 12:30:41;;;;;;;;;;;18.00;99.90;;;;;;4996856;28;19985;-70
2023/08/06 12:33:08;;;;;;;;;;;15.90;99.90;;;;;;4982784;28;19923;-70
2023/08/06 12:35:37;;;;;;;;;;;16.00;99.90;;;;;;4966961;29;20107;-70
2023/08/06 12:38:04;;;;;;;;;;;16.00;99.90;;;;;;4965570;28;20210;-70
2023/08/06 12:40:30;;;;;;;;;;;16.00;99.90;;;;;;4966781;28;19965;-70
2023/08/06 12:42:58;;;;;;;;;;;16.00;99.90;;;;;;4966049;28;20178;-69
2023/08/06 12:45:25;;;;;;;;;;;16.00;99.90;;;;;;4991601;28;20205;-71
2023/08/06 12:47:52;;;;;;;;;;;15.90;99.90;;;;;;4995870;28;19989;-69
2023/08/06 12:50:18;;;;;;;;;;;15.70;99.90;;;;;;4980620;28;19928;-72
2023/08/06 12:52:46;;;;;;;;;;;15.60;99.90;;;;;;4985328;28;19922;-70
2023/08/06 12:55:13;;;;;;;;;;;15.50;99.90;;;;;;4985968;28;19954;-69
2023/08/06 12:57:39;;;;;;;;;;;15.40;99.90;;;;;;4981117;28;19946;-70
2023/08/06 13:00:07;;;;;;;;;;;15.40;99.90;;;;;;4988118;28;19961;-71
2023/08/06 13:02:33;;;;;;;;;;;15.30;99.90;;;;;;4984839;28;19922;-71
2023/08/06 13:05:03;;;;;;;;;;;15.20;99.90;;;;;;4985721;28;19944;-71
2023/08/06 13:07:29;;;;;;;;;;;15.10;99.90;;;;;;4974427;28;19985;-69
2023/08/06 13:09:57;;;;;;;;;;;15.00;99.90;;;;;;4985546;28;19953;-71
2023/08/06 13:12:24;;;;;;;;;;;15.00;99.90;;;;;;4967617;28;20223;-71
2023/08/06 13:14:52;;;;;;;;;;;14.90;99.90;;;;;;4992985;28;19922;-70
2023/08/06 13:17:19;;;;;;;;;;;14.90;99.90;;;;;;4982858;28;20153;-70
2023/08/06 13:19:46;;;;;;;;;;;14.90;99.90;;;;;;4967226;28;19986;-70
2023/08/06 13:22:12;;;;;;;;;;;14.90;99.90;;;;;;4966269;29;19953;-70
2023/08/06 13:24:41;;;;;;;;;;;14.90;99.90;;;;;;4965866;29;20162;-70
2023/08/06 13:27:09;;;;;;;;;;;14.90;99.90;;;;;;4965864;28;19946;-70
2023/08/06 13:29:36;;;;;;;;;;;14.90;99.90;;;;;;4978185;28;19989;-70
2023/08/06 13:32:02;;;;;;;;;;;14.80;99.90;;;;;;4991425;28;19922;-70
2023/08/06 13:34:29;;;;;;;;;;;14.70;99.90;;;;;;4985303;28;19922;-70
2023/08/06 13:36:56;;;;;;;;;;;14.60;99.90;;;;;;4985108;28;19950;-70
2023/08/06 13:39:22;;;;;;;;;;;14.50;99.90;;;;;;4985036;28;20248;-70
2023/08/06 13:41:55;;;;;;;;;;;14.40;99.90;;;;;;4967889;28;19953;-70
2023/08/06 13:44:23;;;;;;;;;;;14.40;99.90;;;;;;4973246;28;19989;-70
2023/08/06 13:46:49;;;;;;;;;;;14.40;99.90;;;;;;4975611;28;19989;-70
2023/08/06 13:49:16;;;;;;;;;;;14.30;99.90;;;;;;4965778;28;19929;-70
2023/08/06 13:51:42;;;;;;;;;;;14.30;99.90;;;;;;4965397;28;19922;-70
2023/08/06 13:54:09;;;;;;;;;;;14.30;99.90;;;;;;4968916;28;19989;-70
2023/08/06 13:56:37;;;;;;;;;;;14.30;99.90;;;;;;4984896;28;20165;-70
2023/08/06 13:59:04;;;;;;;;;;;14.20;99.90;;;;;;4980188;28;19997;-69
2023/08/06 14:01:32;;;;;;;;;;;14.20;99.90;;;;;;4991419;28;19922;-68
2023/08/06 14:03:59;;;;;;;;;;;14.20;99.90;;;;;;5004479;28;19989;-70
2023/08/06 14:06:26;;;;;;;;;;;14.10;99.90;;;;;;5004154;28;20182;-70
2023/08/06 14:08:52;;;;;;;;;;;14.10;99.90;;;;;;5004429;28;19993;-70
2023/08/06 14:11:19;;;;;;;;;;;13.90;99.90;;;;;;4995458;28;19989;-70
2023/08/06 14:13:45;;;;;;;;;;;13.90;99.90;;;;;;4968233;28;19937;-70
2023/08/06 14:16:12;;;;;;;;;;;13.90;99.90;;;;;;4991386;28;19961;-69
2023/08/06 14:18:41;;;;;;;;;;;13.80;99.90;;;;;;4983364;28;19953;-70
2023/08/06 14:21:08;;;;;;;;;;;13.90;99.90;;;;;;4978807;28;20009;-70
2023/08/06 14:23:34;;;;;;;;;;;13.80;99.90;;;;;;4978687;28;19929;-71
2023/08/06 14:26:01;;;;;;;;;;;13.80;99.90;;;;;;4965096;29;19929;-71
2023/08/06 14:28:28;;;;;;;;;;;13.90;99.90;;;;;;4970891;28;19929;-70
2023/08/06 14:30:55;;;;;;;;;;;13.80;99.90;;;;;;4988522;28;19923;-70
2023/08/06 14:33:22;;;;;;;;;;;13.80;99.90;;;;;;4997028;28;19928;-70
2023/08/06 14:35:50;;;;;;;;;;;13.80;99.90;;;;;;4987516;28;19961;-70
2023/08/06 14:38:17;;;;;;;;;;;13.70;99.90;;;;;;4972562;28;19993;-71
2023/08/06 14:40:44;;;;;;;;;;;13.80;99.90;;;;;;4965248;29;20034;-70
2023/08/06 14:43:11;;;;;;;;;;;13.80;99.90;;;;;;4965187;28;19986;-71
2023/08/06 14:45:38;;;;;;;;;;;13.70;99.90;;;;;;4990519;28;20268;-71
2023/08/06 14:48:05;;;;;;;;;;;13.80;99.90;;;;;;4997712;28;19985;-71
2023/08/06 14:50:31;;;;;;;;;;;13.80;99.90;;;;;;4965171;28;19922;-70
2023/08/06 14:53:01;;;;;;;;;;;13.70;99.90;;;;;;4972004;28;19953;-70